createdAt,value
2022-10-14T00:03:28.225Z,20.77
2022-10-14T00:07:30.320Z,19.50
2022-10-14T00:11:34.717Z,21.10
2022-10-14T00:15:40.620Z,15.75
2022-10-14T00:19:42.358Z,22.02
2022-10-14T00:23:45.172Z,19.23
2022-10-14T00:27:46.874Z,21.75
2022-10-14T00:31:48.799Z,18.45
2022-10-14T00:35:57.601Z,18.12
2022-10-14T00:39:59.274Z,17.33
2022-10-14T00:44:05.491Z,18.60
2022-10-14T00:48:08.638Z,21.80
2022-10-14T00:52:22.096Z,23.17
2022-10-14T00:56:28.609Z,26.90
2022-10-14T01:00:30.412Z,26.13
2022-10-14T01:04:32.857Z,24.30
2022-10-14T01:08:54.743Z,25.05
2022-10-14T01:13:31.154Z,23.48
2022-10-14T01:17:32.777Z,22.48
2022-10-14T01:21:37.176Z,27.25
2022-10-14T01:26:22.029Z,27.45
2022-10-14T01:30:31.854Z,26.08
2022-10-14T01:34:55.570Z,28.05
2022-10-14T01:39:02.967Z,25.08
2022-10-14T01:47:08.959Z,28.70
2022-10-14T01:51:16.569Z,29.37
2022-10-14T01:55:22.181Z,31.15
2022-10-14T01:59:24.668Z,31.65
2022-10-14T02:03:26.348Z,35.15
2022-10-14T02:07:36.761Z,38.35
2022-10-14T02:11:56.498Z,31.27
2022-10-14T02:16:38.506Z,31.25
2022-10-14T02:21:25.285Z,40.20
2022-10-14T02:25:36.025Z,37.45
2022-10-14T02:29:40.316Z,36.95
2022-10-14T02:33:45.095Z,28.30
2022-10-14T02:37:48.239Z,29.00
2022-10-14T02:41:49.942Z,25.85
2022-10-14T02:46:01.586Z,28.08
2022-10-14T02:50:04.193Z,30.92
2022-10-14T02:54:05.864Z,28.70
2022-10-14T02:58:07.555Z,31.50
2022-10-14T03:02:09.484Z,28.42
2022-10-14T03:06:11.196Z,31.23
2022-10-14T03:10:12.971Z,28.40
2022-10-14T03:14:14.691Z,30.90
2022-10-14T03:18:16.538Z,32.15
2022-10-14T03:22:18.401Z,30.98
2022-10-14T03:26:20.308Z,27.80
2022-10-14T03:30:22.008Z,29.42
2022-10-14T03:34:23.745Z,29.35
2022-10-14T03:38:25.479Z,28.98
2022-10-14T03:42:27.165Z,26.35
2022-10-14T03:46:28.896Z,27.50
2022-10-14T03:50:30.742Z,26.10
2022-10-14T03:54:32.389Z,23.52
2022-10-14T03:58:34.048Z,25.17
2022-10-14T04:02:35.833Z,22.50
2022-10-14T04:06:37.873Z,22.00
2022-10-14T04:10:39.530Z,23.85
2022-10-14T04:14:41.243Z,26.15
2022-10-14T04:18:42.952Z,27.58
2022-10-14T04:22:44.790Z,24.37
2022-10-14T04:26:46.471Z,19.08
2022-10-14T04:30:48.145Z,21.70
2022-10-14T04:34:49.885Z,18.08
2022-10-14T04:38:51.664Z,16.50
2022-10-14T04:42:57.351Z,17.75
2022-10-14T04:46:59.044Z,14.87
2022-10-14T04:51:00.708Z,16.15
2022-10-14T04:55:03.502Z,14.77
2022-10-14T04:59:05.821Z,17.50
2022-10-14T05:03:07.519Z,19.77
2022-10-14T05:07:09.243Z,18.85
2022-10-14T05:11:10.924Z,18.62
2022-10-14T05:15:12.774Z,18.42
2022-10-14T05:19:14.529Z,19.80
2022-10-14T05:23:16.272Z,18.48
2022-10-14T05:27:18.302Z,23.17
2022-10-14T05:31:20.036Z,18.98
2022-10-14T05:35:39.920Z,19.27
2022-10-14T05:39:43.356Z,17.42
2022-10-14T05:43:45.043Z,15.80
2022-10-14T05:47:46.969Z,16.35
2022-10-14T05:51:48.664Z,15.30
2022-10-14T05:55:50.293Z,19.23
2022-10-14T05:59:51.993Z,16.15
2022-10-14T06:03:53.665Z,15.52
2022-10-14T06:07:55.343Z,16.83
2022-10-14T06:11:56.992Z,18.73
2022-10-14T06:16:06.512Z,19.65
2022-10-14T06:20:08.684Z,20.55
2022-10-14T06:24:11.024Z,17.77
2022-10-14T06:28:12.801Z,19.35
2022-10-14T06:32:14.479Z,15.45
2022-10-14T06:36:16.162Z,18.27
2022-10-14T06:40:17.916Z,14.73
2022-10-14T06:44:20.664Z,13.57
2022-10-14T06:48:22.800Z,12.77
2022-10-14T06:52:24.997Z,13.32
2022-10-14T06:56:26.892Z,10.13
2022-10-14T07:00:28.611Z,11.88
2022-10-14T07:04:30.354Z,9.52
2022-10-14T07:08:32.478Z,9.35
2022-10-14T07:12:34.400Z,9.93
2022-10-14T07:16:36.147Z,8.70
2022-10-14T07:20:38.001Z,9.82
2022-10-14T07:24:39.704Z,10.57
2022-10-14T07:28:41.544Z,11.45
2022-10-14T07:32:43.260Z,12.10
2022-10-14T07:36:44.973Z,11.25
2022-10-14T07:40:59.529Z,7.62
2022-10-14T07:45:01.390Z,9.00
2022-10-14T07:49:12.903Z,10.30
2022-10-14T07:53:14.803Z,8.52
2022-10-14T07:57:16.695Z,8.10
2022-10-14T08:01:18.856Z,6.15
2022-10-14T08:09:42.435Z,7.15
2022-10-14T08:13:46.256Z,6.75
2022-10-14T08:17:48.224Z,5.75
2022-10-14T08:21:49.896Z,6.72
2022-10-14T08:25:51.691Z,6.28
2022-10-14T08:29:54.424Z,7.00
2022-10-14T08:33:56.201Z,9.25
2022-10-14T08:37:59.575Z,4.50
2022-10-14T08:42:26.418Z,5.15
2022-10-14T08:46:42.564Z,7.10
2022-10-14T08:51:15.788Z,5.68
2022-10-14T08:56:06.718Z,4.22
2022-10-14T09:00:11.117Z,4.25
2022-10-14T09:04:14.957Z,8.38
2022-10-14T09:08:17.766Z,4.30
2022-10-14T09:12:26.861Z,5.10
2022-10-14T09:16:33.025Z,4.72
2022-10-14T09:20:34.802Z,8.63
2022-10-14T09:24:37.368Z,3.85
2022-10-14T09:28:41.300Z,5.43
2022-10-14T09:32:52.806Z,3.20
2022-10-14T09:36:54.668Z,4.37
2022-10-14T09:41:00.061Z,6.00
2022-10-14T09:45:13.915Z,4.95
2022-10-14T09:49:40.284Z,4.18
2022-10-14T09:53:49.074Z,3.10
2022-10-14T09:58:14.085Z,4.32
2022-10-14T10:02:24.133Z,5.72
2022-10-14T10:06:27.053Z,3.30
2022-10-14T10:10:31.761Z,8.23
2022-10-14T10:14:34.124Z,6.00
2022-10-14T10:18:35.816Z,6.10
2022-10-14T10:22:38.818Z,8.95
2022-10-14T10:26:40.593Z,4.82
2022-10-14T10:30:59.618Z,5.28
2022-10-14T10:35:29.854Z,6.97
2022-10-14T10:39:43.560Z,6.20
2022-10-14T10:44:28.371Z,4.37
2022-10-14T10:48:54.200Z,5.70
2022-10-14T10:53:03.934Z,7.18
2022-10-14T10:57:45.856Z,5.45
2022-10-14T11:01:56.751Z,5.60
2022-10-14T11:06:10.882Z,6.00
2022-10-14T11:10:37.160Z,6.35
2022-10-14T11:14:54.192Z,6.55
2022-10-14T11:19:21.216Z,9.85
2022-10-14T11:23:41.475Z,6.57
2022-10-14T11:28:04.390Z,8.15
2022-10-14T11:32:24.765Z,8.68
2022-10-14T11:36:40.171Z,10.05
2022-10-14T11:41:18.946Z,11.95
2022-10-14T11:45:35.795Z,10.30
2022-10-14T11:49:45.924Z,12.33
2022-10-14T11:53:55.648Z,10.18
2022-10-14T11:58:01.064Z,12.63
2022-10-14T12:02:30.600Z,13.93
2022-10-14T12:06:46.709Z,12.93
2022-10-14T12:10:59.129Z,16.27
2022-10-14T12:15:06.845Z,13.07
2022-10-14T12:19:11.713Z,11.48
2022-10-14T12:23:36.758Z,13.75
2022-10-14T12:27:39.125Z,12.50
2022-10-14T12:31:40.844Z,12.85
2022-10-14T12:35:50.709Z,12.40
2022-10-14T12:40:13.386Z,13.68
2022-10-14T12:44:19.091Z,13.43
2022-10-14T12:48:23.462Z,10.75
2022-10-14T12:52:55.936Z,12.57
2022-10-14T12:57:04.641Z,11.73
2022-10-14T13:01:18.641Z,12.13
2022-10-14T13:05:42.716Z,11.70
2022-10-14T13:09:45.300Z,10.77
2022-10-14T13:13:49.157Z,12.00
2022-10-14T13:17:50.809Z,13.13
2022-10-14T13:21:53.274Z,13.27
2022-10-14T13:26:18.088Z,13.80
2022-10-14T13:30:23.625Z,14.68
2022-10-14T13:34:29.577Z,13.60
2022-10-14T13:38:33.855Z,13.38
2022-10-14T13:42:37.333Z,15.77
2022-10-14T13:46:42.792Z,15.07
2022-10-14T13:50:50.349Z,15.23
2022-10-14T13:55:14.001Z,14.55
2022-10-14T13:59:45.689Z,14.75
2022-10-14T14:03:51.713Z,15.55
2022-10-14T14:12:15.948Z,14.43
2022-10-14T14:16:21.602Z,14.63
2022-10-14T14:20:26.284Z,15.55
2022-10-14T14:24:29.403Z,15.80
2022-10-14T14:28:32.512Z,15.05
2022-10-14T14:32:36.385Z,12.02
2022-10-14T14:36:55.419Z,13.32
2022-10-14T14:41:21.188Z,15.60
2022-10-14T14:45:25.779Z,17.58
2022-10-14T14:49:31.670Z,15.80
2022-10-14T14:53:33.517Z,15.65
2022-10-14T14:57:35.354Z,15.25
2022-10-14T15:01:41.109Z,15.48
2022-10-14T15:05:54.741Z,14.02
2022-10-14T15:10:00.225Z,14.98
2022-10-14T15:14:02.942Z,16.40
2022-10-14T15:18:19.671Z,16.95
2022-10-14T15:22:28.616Z,15.13
2022-10-14T15:26:36.186Z,17.15
2022-10-14T15:30:40.925Z,17.77
2022-10-14T15:34:42.665Z,17.40
2022-10-14T15:38:44.326Z,14.60
2022-10-14T15:42:47.269Z,15.13
2022-10-14T15:47:09.427Z,18.58
2022-10-14T15:51:16.001Z,15.30
2022-10-14T15:55:20.987Z,15.93
2022-10-14T15:59:25.514Z,16.65
2022-10-14T16:03:27.244Z,16.05
2022-10-14T16:07:28.944Z,15.60
2022-10-14T16:11:31.175Z,14.82
2022-10-14T16:15:44.000Z,14.15
2022-10-14T16:19:45.719Z,14.20
2022-10-14T16:23:47.481Z,16.08
2022-10-14T16:27:50.176Z,17.62
2022-10-14T16:31:52.317Z,16.98
2022-10-14T16:35:57.195Z,15.98
2022-10-14T16:39:58.877Z,14.77
2022-10-14T16:44:00.531Z,17.50
2022-10-14T16:48:02.584Z,18.95
2022-10-14T16:52:04.532Z,16.87
2022-10-14T16:56:31.664Z,17.10
2022-10-14T17:00:33.369Z,14.87
2022-10-14T17:04:35.037Z,17.30
2022-10-14T17:08:37.093Z,17.40
2022-10-14T17:12:39.482Z,17.25
2022-10-14T17:16:42.200Z,17.60
2022-10-14T17:20:43.876Z,14.25
2022-10-14T17:24:45.843Z,19.62
2022-10-14T17:28:48.376Z,17.67
2022-10-14T17:32:50.133Z,13.02
2022-10-14T17:36:53.321Z,18.80
2022-10-14T17:41:02.540Z,19.15
2022-10-14T17:45:04.548Z,14.52
2022-10-14T17:49:09.822Z,17.83
2022-10-14T17:53:12.585Z,13.50
2022-10-14T17:57:14.246Z,17.25
2022-10-14T18:01:16.546Z,15.10
2022-10-14T18:05:18.271Z,13.20
2022-10-14T18:09:19.996Z,16.50
2022-10-14T18:13:21.667Z,16.20
2022-10-14T18:17:24.093Z,16.23
2022-10-14T18:21:27.373Z,18.55
2022-10-14T18:25:29.037Z,16.87
2022-10-14T18:29:30.923Z,14.13
2022-10-14T18:33:34.439Z,16.80
2022-10-14T18:37:36.150Z,17.52
2022-10-14T18:41:37.930Z,17.73
2022-10-14T18:45:39.600Z,16.37
2022-10-14T18:49:41.427Z,18.95
2022-10-14T18:53:45.080Z,16.23
2022-10-14T18:57:46.730Z,18.48
2022-10-14T19:01:52.874Z,17.42
2022-10-14T19:05:57.860Z,17.33
2022-10-14T19:09:59.525Z,16.00
2022-10-14T19:14:05.268Z,17.60
2022-10-14T19:18:07.096Z,16.35
2022-10-14T19:22:10.633Z,15.48
2022-10-14T19:30:21.748Z,16.83
2022-10-14T19:34:26.896Z,15.35
2022-10-14T19:38:29.247Z,15.73
2022-10-14T19:42:30.968Z,16.37
2022-10-14T19:46:32.679Z,20.23
2022-10-14T19:50:34.626Z,19.85
2022-10-14T19:54:36.347Z,20.65
2022-10-14T19:58:42.275Z,18.62
2022-10-14T20:02:46.639Z,20.50
2022-10-14T20:06:48.301Z,17.77
2022-10-14T20:10:50.078Z,18.92
2022-10-14T20:14:51.874Z,18.12
2022-10-14T20:18:54.030Z,20.33
2022-10-14T20:22:55.700Z,21.85
2022-10-14T20:26:57.491Z,18.58
2022-10-14T20:30:59.173Z,18.80
2022-10-14T20:35:00.939Z,22.08
2022-10-14T20:39:02.794Z,13.82
2022-10-14T20:43:04.533Z,16.87
2022-10-14T20:47:06.208Z,12.82
2022-10-14T20:51:11.225Z,19.85
2022-10-14T20:55:13.060Z,20.23
2022-10-14T20:59:14.848Z,15.13
2022-10-14T21:03:16.529Z,13.88
2022-10-14T21:07:20.689Z,16.52
2022-10-14T21:11:24.682Z,13.62
2022-10-14T21:15:29.053Z,13.70
2022-10-14T21:19:31.070Z,13.02
2022-10-14T21:23:34.299Z,13.82
2022-10-14T21:27:36.010Z,15.82
2022-10-14T21:31:38.419Z,13.00
2022-10-14T21:35:40.116Z,13.00
2022-10-14T21:39:41.839Z,12.77
2022-10-14T21:43:43.645Z,13.73
2022-10-14T21:47:45.403Z,13.77
2022-10-14T21:51:47.083Z,11.82
2022-10-14T21:55:52.566Z,14.50
2022-10-14T21:59:54.246Z,14.65
2022-10-14T22:04:04.524Z,10.50
2022-10-14T22:08:06.519Z,11.77
2022-10-14T22:12:08.272Z,12.57
2022-10-14T22:16:10.000Z,14.77
2022-10-14T22:20:11.868Z,14.45
2022-10-14T22:24:14.215Z,13.85
2022-10-14T22:28:15.963Z,16.52
2022-10-14T22:32:17.726Z,15.80
2022-10-14T22:36:25.122Z,13.05
2022-10-14T22:40:26.821Z,11.93
2022-10-14T22:44:28.468Z,15.60
2022-10-14T22:48:30.852Z,11.30
2022-10-14T22:52:32.539Z,11.88
2022-10-14T22:56:34.489Z,15.95
2022-10-14T23:00:36.209Z,13.93
2022-10-14T23:04:37.940Z,13.73
2022-10-14T23:08:40.493Z,14.38
2022-10-14T23:12:42.193Z,11.35
2022-10-14T23:16:43.938Z,11.80
2022-10-14T23:20:45.602Z,12.65
2022-10-14T23:24:47.375Z,12.65
2022-10-14T23:28:56.025Z,12.95
2022-10-14T23:32:57.753Z,14.55
2022-10-14T23:36:59.431Z,12.23
2022-10-14T23:41:02.858Z,14.70
2022-10-14T23:45:05.292Z,9.85
2022-10-14T23:49:14.267Z,10.07
2022-10-14T23:53:27.200Z,13.90
2022-10-14T23:57:28.864Z,12.95
